createdAt,value
2022-09-17T00:01:52.300Z,100242.69
2022-09-17T00:03:55.408Z,100242.69
2022-09-17T00:06:02.109Z,100238.56
2022-09-17T00:08:04.252Z,100242.22
2022-09-17T00:10:06.450Z,100247.81
2022-09-17T00:12:08.005Z,100248.59
2022-09-17T00:14:14.146Z,100244.56
2022-09-17T00:16:23.510Z,100242.03
2022-09-17T00:18:25.096Z,100245.28
2022-09-17T00:20:27.101Z,100243.72
2022-09-17T00:22:30.025Z,100244.53
2022-09-17T00:24:31.521Z,100247.88
2022-09-17T00:26:35.003Z,100247.53
2022-09-17T00:28:36.688Z,100252.00
2022-09-17T00:30:40.668Z,100250.25
2022-09-17T00:32:42.153Z,100252.13
2022-09-17T00:34:43.688Z,100257.34
2022-09-17T00:36:45.198Z,100250.16
2022-09-17T00:38:50.516Z,100248.28
2022-09-17T00:40:52.117Z,100243.50
2022-09-17T00:42:53.627Z,100245.44
2022-09-17T00:44:56.997Z,100242.84
2022-09-17T00:46:58.605Z,100240.91
2022-09-17T00:49:04.363Z,100236.75
2022-09-17T00:51:16.323Z,100245.53
2022-09-17T00:53:21.445Z,100240.44
2022-09-17T00:55:27.965Z,100242.38
2022-09-17T00:57:31.005Z,100255.44
2022-09-17T00:59:32.767Z,100246.28
2022-09-17T01:01:34.321Z,100250.25
2022-09-17T01:03:35.827Z,100246.59
2022-09-17T01:05:47.114Z,100244.69
2022-09-17T01:08:01.235Z,100250.25
2022-09-17T01:10:12.595Z,100249.63
2022-09-17T01:12:38.586Z,100262.03
2022-09-17T01:15:03.392Z,100256.91
2022-09-17T01:17:14.939Z,100260.66
2022-09-17T01:19:42.686Z,100262.88
2022-09-17T01:21:56.447Z,100265.41
2022-09-17T01:24:19.741Z,100269.22
2022-09-17T01:26:44.677Z,100274.41
2022-09-17T01:28:56.993Z,100272.78
2022-09-17T01:31:16.932Z,100264.97
2022-09-17T01:33:26.374Z,100267.81
2022-09-17T01:35:36.337Z,100270.84
2022-09-17T01:37:48.111Z,100266.53
2022-09-17T01:39:56.679Z,100274.38
2022-09-17T01:42:07.317Z,100270.50
2022-09-17T01:44:14.022Z,100271.78
2022-09-17T01:46:22.008Z,100271.78
2022-09-17T01:48:29.052Z,100270.03
2022-09-17T01:50:37.421Z,100268.19
2022-09-17T01:52:41.770Z,100276.00
2022-09-17T01:54:46.812Z,100271.00
2022-09-17T01:56:55.006Z,100272.47
2022-09-17T01:59:02.178Z,100277.28
2022-09-17T02:01:07.543Z,100272.47
2022-09-17T02:03:17.253Z,100270.22
2022-09-17T02:05:24.416Z,100271.81
2022-09-17T02:07:27.440Z,100274.16
2022-09-17T02:09:33.472Z,100276.09
2022-09-17T02:11:39.452Z,100276.75
2022-09-17T02:13:46.121Z,100279.41
2022-09-17T02:15:52.202Z,100273.44
2022-09-17T02:17:57.314Z,100278.03
2022-09-17T02:20:01.148Z,100284.47
2022-09-17T02:22:11.829Z,100283.19
2022-09-17T02:24:18.878Z,100281.56
2022-09-17T02:26:22.444Z,100288.38
2022-09-17T02:28:33.152Z,100278.22
2022-09-17T02:30:34.753Z,100286.84
2022-09-17T02:32:36.310Z,100281.84
2022-09-17T02:34:38.561Z,100287.97
2022-09-17T02:36:41.486Z,100287.09
2022-09-17T02:38:45.051Z,100285.94
2022-09-17T02:40:53.032Z,100284.16
2022-09-17T02:43:08.400Z,100282.44
2022-09-17T02:45:21.562Z,100287.69
2022-09-17T02:47:51.605Z,100285.44
2022-09-17T02:50:08.166Z,100280.09
2022-09-17T02:52:21.499Z,100296.09
2022-09-17T02:54:28.898Z,100295.50
2022-09-17T02:56:43.399Z,100289.97
2022-09-17T02:58:56.324Z,100285.44
2022-09-17T03:01:04.501Z,100279.66
2022-09-17T03:03:10.925Z,100278.56
2022-09-17T03:05:13.269Z,100282.72
2022-09-17T03:07:18.719Z,100277.44
2022-09-17T03:09:20.252Z,100275.84
2022-09-17T03:11:21.794Z,100269.84
2022-09-17T03:13:23.403Z,100275.34
2022-09-17T03:15:25.042Z,100267.34
2022-09-17T03:17:26.616Z,100273.44
2022-09-17T03:19:28.064Z,100273.63
2022-09-17T03:21:29.638Z,100269.19
2022-09-17T03:23:32.600Z,100284.53
2022-09-17T03:25:34.486Z,100285.00
2022-09-17T03:27:36.034Z,100285.50
2022-09-17T03:29:37.891Z,100270.34
2022-09-17T03:31:39.607Z,100273.56
2022-09-17T03:33:42.933Z,100278.00
2022-09-17T03:35:45.012Z,100276.41
2022-09-17T03:37:46.527Z,100282.31
2022-09-17T03:39:49.640Z,100281.53
2022-09-17T03:41:51.174Z,100278.63
2022-09-17T03:43:53.535Z,100284.53
2022-09-17T03:45:55.115Z,100280.03
2022-09-17T03:47:56.591Z,100280.84
2022-09-17T03:49:58.125Z,100279.72
2022-09-17T03:51:59.626Z,100280.34
2022-09-17T03:54:01.111Z,100286.00
2022-09-17T03:56:06.162Z,100284.59
2022-09-17T03:58:08.171Z,100282.88
2022-09-17T04:00:11.125Z,100287.19
2022-09-17T04:02:12.909Z,100289.72
2022-09-17T04:04:14.502Z,100289.41
2022-09-17T04:06:16.026Z,100295.84
2022-09-17T04:08:17.556Z,100291.84
2022-09-17T04:10:19.068Z,100293.03
2022-09-17T04:12:21.962Z,100301.25
2022-09-17T04:14:23.666Z,100299.47
2022-09-17T04:16:25.325Z,100291.00
2022-09-17T04:18:26.889Z,100291.38
2022-09-17T04:20:28.685Z,100295.56
2022-09-17T04:22:31.389Z,100302.16
2022-09-17T04:24:32.961Z,100292.47
2022-09-17T04:26:34.649Z,100298.09
2022-09-17T04:28:37.744Z,100290.75
2022-09-17T04:30:39.416Z,100296.97
2022-09-17T04:32:41.013Z,100294.22
2022-09-17T04:34:42.652Z,100296.97
2022-09-17T04:36:44.110Z,100303.03
2022-09-17T04:38:47.926Z,100305.09
2022-09-17T04:40:49.582Z,100304.19
2022-09-17T04:42:52.353Z,100309.63
2022-09-17T04:44:55.227Z,100310.41
2022-09-17T04:46:56.800Z,100310.53
2022-09-17T04:48:58.657Z,100311.94
2022-09-17T04:51:00.255Z,100312.75
2022-09-17T04:53:01.946Z,100307.53
2022-09-17T04:55:04.032Z,100313.63
2022-09-17T04:57:07.505Z,100315.03
2022-09-17T04:59:09.304Z,100311.50
2022-09-17T05:01:12.521Z,100313.78
2022-09-17T05:03:14.196Z,100320.38
2022-09-17T05:05:17.600Z,100323.88
2022-09-17T05:07:19.124Z,100320.38
2022-09-17T05:09:20.601Z,100329.06
2022-09-17T05:11:22.222Z,100325.94
2022-09-17T05:13:23.768Z,100322.72
2022-09-17T05:15:25.849Z,100323.84
2022-09-17T05:17:28.980Z,100326.06
2022-09-17T05:19:30.505Z,100335.00
2022-09-17T05:21:32.076Z,100328.28
2022-09-17T05:23:33.705Z,100322.97
2022-09-17T05:25:35.236Z,100326.63
2022-09-17T05:27:36.912Z,100328.22
2022-09-17T05:29:38.463Z,100329.16
2022-09-17T05:31:40.258Z,100333.28
2022-09-17T05:33:43.198Z,100343.63
2022-09-17T05:35:44.976Z,100339.66
2022-09-17T05:37:46.451Z,100343.06
2022-09-17T05:39:48.010Z,100345.50
2022-09-17T05:41:49.574Z,100336.25
2022-09-17T05:43:51.265Z,100349.97
2022-09-17T05:45:52.838Z,100348.88
2022-09-17T05:47:55.547Z,100357.75
2022-09-17T05:49:58.418Z,100359.53
2022-09-17T05:51:59.948Z,100362.44
2022-09-17T05:54:01.552Z,100362.78
2022-09-17T05:56:03.216Z,100363.13
2022-09-17T05:58:11.664Z,100363.28
2022-09-17T06:00:14.257Z,100370.16
2022-09-17T06:02:15.851Z,100363.53
2022-09-17T06:04:17.524Z,100365.94
2022-09-17T06:06:20.447Z,100358.38
2022-09-17T06:08:22.027Z,100365.50
2022-09-17T06:10:23.570Z,100377.22
2022-09-17T06:12:25.124Z,100370.06
2022-09-17T06:14:26.631Z,100374.72
2022-09-17T06:16:28.399Z,100380.81
2022-09-17T06:18:30.995Z,100375.25
2022-09-17T06:20:32.796Z,100373.03
2022-09-17T06:22:35.647Z,100375.75
2022-09-17T06:24:37.213Z,100379.06
2022-09-17T06:26:38.722Z,100371.13
2022-09-17T06:28:41.855Z,100377.88
2022-09-17T06:30:43.606Z,100377.97
2022-09-17T06:32:45.146Z,100379.50
2022-09-17T06:34:46.665Z,100384.59
2022-09-17T06:36:48.822Z,100379.16
2022-09-17T06:38:51.826Z,100382.88
2022-09-17T06:40:53.907Z,100392.41
2022-09-17T06:42:57.204Z,100389.41
2022-09-17T06:45:00.380Z,100391.31
2022-09-17T06:47:03.950Z,100391.31
2022-09-17T06:49:05.565Z,100391.94
2022-09-17T06:51:08.700Z,100394.94
2022-09-17T06:53:10.256Z,100393.91
2022-09-17T06:55:13.495Z,100388.50
2022-09-17T06:57:15.055Z,100396.88
2022-09-17T06:59:16.725Z,100387.63
2022-09-17T07:01:18.344Z,100393.22
2022-09-17T07:03:23.132Z,100384.78
2022-09-17T07:05:26.064Z,100387.66
2022-09-17T07:07:30.931Z,100383.66
2022-09-17T07:09:32.457Z,100381.44
2022-09-17T07:11:35.311Z,100382.06
2022-09-17T07:13:37.107Z,100381.28
2022-09-17T07:15:38.751Z,100380.88
2022-09-17T07:17:40.588Z,100380.59
2022-09-17T07:19:42.462Z,100386.69
2022-09-17T07:21:44.165Z,100387.66
2022-09-17T07:23:45.740Z,100387.97
2022-09-17T07:25:51.586Z,100385.06
2022-09-17T07:27:54.549Z,100390.69
2022-09-17T07:29:56.106Z,100388.91
2022-09-17T07:31:58.077Z,100387.69
2022-09-17T07:33:59.597Z,100393.81
2022-09-17T07:36:03.486Z,100384.25
2022-09-17T07:38:05.183Z,100386.31
2022-09-17T07:40:08.809Z,100376.22
2022-09-17T07:42:10.870Z,100392.06
2022-09-17T07:44:13.779Z,100398.19
2022-09-17T07:46:16.821Z,100384.94
2022-09-17T07:48:18.628Z,100386.91
2022-09-17T07:50:20.157Z,100395.06
2022-09-17T07:52:21.706Z,100399.81
2022-09-17T07:56:26.599Z,100393.84
2022-09-17T07:58:30.052Z,100391.78
2022-09-17T08:00:33.025Z,100392.84
2022-09-17T08:02:34.655Z,100387.19
2022-09-17T08:04:36.215Z,100393.28
2022-09-17T08:06:38.256Z,100390.00
2022-09-17T08:08:40.841Z,100394.50
2022-09-17T08:10:42.508Z,100393.25
2022-09-17T08:12:44.023Z,100393.00
2022-09-17T08:14:45.626Z,100391.53
2022-09-17T08:16:48.767Z,100388.09
2022-09-17T08:18:55.241Z,100395.28
2022-09-17T08:20:57.866Z,100394.34
2022-09-17T08:23:00.300Z,100392.47
2022-09-17T08:25:01.872Z,100389.50
2022-09-17T08:27:03.926Z,100393.59
2022-09-17T08:29:05.601Z,100396.03
2022-09-17T08:31:08.862Z,100402.75
2022-09-17T08:33:11.804Z,100406.09
2022-09-17T08:35:13.379Z,100402.75
2022-09-17T08:37:14.946Z,100399.84
2022-09-17T08:39:16.508Z,100395.94
2022-09-17T08:41:24.090Z,100393.88
2022-09-17T08:43:27.406Z,100395.78
2022-09-17T08:45:29.480Z,100395.94
2022-09-17T08:47:34.711Z,100390.34
2022-09-17T08:49:47.645Z,100397.06
2022-09-17T08:52:01.485Z,100394.34
2022-09-17T08:54:09.948Z,100396.13
2022-09-17T08:56:15.831Z,100394.31
2022-09-17T08:58:54.581Z,100391.09
2022-09-17T09:01:05.083Z,100394.00
2022-09-17T09:03:25.215Z,100402.88
2022-09-17T09:05:31.627Z,100402.13
2022-09-17T09:07:37.796Z,100402.91
2022-09-17T09:09:46.174Z,100403.06
2022-09-17T09:11:49.921Z,100402.03
2022-09-17T09:13:57.511Z,100401.09
2022-09-17T09:16:02.110Z,100396.44
2022-09-17T09:18:16.348Z,100395.13
2022-09-17T09:20:28.405Z,100386.25
2022-09-17T09:22:45.301Z,100387.38
2022-09-17T09:24:57.548Z,100404.78
2022-09-17T09:27:09.900Z,100412.00
2022-09-17T09:29:21.141Z,100413.81
2022-09-17T09:31:34.782Z,100404.78
2022-09-17T09:33:40.360Z,100407.28
2022-09-17T09:35:44.545Z,100412.75
2022-09-17T09:37:54.305Z,100403.47
2022-09-17T09:40:03.062Z,100413.06
2022-09-17T09:42:11.149Z,100416.34
2022-09-17T09:44:14.781Z,100402.97
2022-09-17T09:46:40.969Z,100406.47
2022-09-17T09:48:53.221Z,100399.47
2022-09-17T09:51:10.382Z,100398.25
2022-09-17T09:53:22.218Z,100395.00
2022-09-17T09:55:42.245Z,100384.56
2022-09-17T09:57:47.225Z,100391.38
2022-09-17T09:59:49.001Z,100379.63
2022-09-17T10:01:51.172Z,100387.22
2022-09-17T10:03:53.148Z,100395.09
2022-09-17T10:05:57.194Z,100383.78
2022-09-17T10:07:58.987Z,100385.97
2022-09-17T10:10:09.771Z,100387.75
2022-09-17T10:12:20.958Z,100383.47
2022-09-17T10:14:24.446Z,100379.94
2022-09-17T10:16:27.620Z,100381.09
2022-09-17T10:18:29.234Z,100374.00
2022-09-17T10:20:32.295Z,100386.13
2022-09-17T10:22:35.543Z,100384.50
2022-09-17T10:24:39.052Z,100385.16
2022-09-17T10:26:42.001Z,100394.44
2022-09-17T10:28:48.347Z,100393.97
2022-09-17T10:30:56.787Z,100398.00
2022-09-17T10:33:16.360Z,100397.50
2022-09-17T10:35:33.812Z,100391.78
2022-09-17T10:37:42.354Z,100383.13
2022-09-17T10:39:43.879Z,100379.09
2022-09-17T10:41:54.152Z,100375.56
2022-09-17T10:43:55.712Z,100364.16
2022-09-17T10:45:59.905Z,100365.69
2022-09-17T10:48:02.255Z,100366.00
2022-09-17T10:50:07.861Z,100374.81
2022-09-17T10:52:17.741Z,100370.50
2022-09-17T10:54:39.834Z,100364.44
2022-09-17T10:56:46.846Z,100363.09
2022-09-17T10:58:56.719Z,100364.41
2022-09-17T11:01:07.811Z,100360.41
2022-09-17T11:03:48.139Z,100363.13
2022-09-17T11:06:16.195Z,100366.81
2022-09-17T11:08:27.266Z,100363.09
2022-09-17T11:10:34.904Z,100366.66
2022-09-17T11:13:09.316Z,100366.81
2022-09-17T11:15:28.484Z,100369.94
2022-09-17T11:17:51.795Z,100380.06
2022-09-17T11:20:01.200Z,100380.44
2022-09-17T11:22:08.419Z,100384.13
2022-09-17T11:24:42.323Z,100395.19
2022-09-17T11:26:52.955Z,100393.63
2022-09-17T11:29:10.093Z,100399.66
2022-09-17T11:31:28.187Z,100401.72
2022-09-17T11:33:58.789Z,100398.38
2022-09-17T11:36:10.316Z,100391.03
2022-09-17T11:38:18.014Z,100387.66
2022-09-17T11:40:25.941Z,100392.47
2022-09-17T11:42:32.516Z,100384.72
2022-09-17T11:44:39.748Z,100377.75
2022-09-17T11:46:46.470Z,100382.44
2022-09-17T11:48:54.246Z,100377.75
2022-09-17T11:51:01.759Z,100380.34
2022-09-17T11:53:09.140Z,100372.34
2022-09-17T11:55:20.446Z,100370.31
2022-09-17T11:57:25.681Z,100365.63
2022-09-17T11:59:35.334Z,100367.03
2022-09-17T12:01:41.688Z,100366.22
2022-09-17T12:03:51.581Z,100370.69
2022-09-17T12:05:56.964Z,100360.84
2022-09-17T12:08:06.040Z,100363.34
2022-09-17T12:10:25.935Z,100365.19
2022-09-17T12:12:49.098Z,100356.44
2022-09-17T12:14:55.321Z,100366.00
2022-09-17T12:16:59.796Z,100367.47
2022-09-17T12:19:14.292Z,100361.47
2022-09-17T12:21:21.730Z,100360.78
2022-09-17T12:23:33.804Z,100359.72
2022-09-17T12:25:48.838Z,100351.22
2022-09-17T12:27:57.079Z,100358.53
2022-09-17T12:30:06.680Z,100348.59
2022-09-17T12:32:25.975Z,100350.66
2022-09-17T12:34:37.596Z,100351.91
2022-09-17T12:36:44.699Z,100352.47
2022-09-17T12:39:16.411Z,100342.38
2022-09-17T12:41:21.252Z,100342.00
2022-09-17T12:43:56.007Z,100348.97
2022-09-17T12:46:15.362Z,100348.97
2022-09-17T12:48:42.492Z,100351.84
2022-09-17T12:50:54.976Z,100337.50
2022-09-17T12:53:11.271Z,100337.50
2022-09-17T12:55:34.256Z,100340.88
2022-09-17T12:57:47.023Z,100331.28
2022-09-17T12:59:53.451Z,100331.19
2022-09-17T13:01:59.613Z,100327.22
2022-09-17T13:04:15.713Z,100320.03
2022-09-17T13:06:35.099Z,100323.00
2022-09-17T13:09:09.860Z,100319.47
2022-09-17T13:11:31.129Z,100319.59
2022-09-17T13:13:40.410Z,100307.63
2022-09-17T13:15:55.494Z,100308.53
2022-09-17T13:18:23.680Z,100305.88
2022-09-17T13:20:31.409Z,100306.97
2022-09-17T13:22:44.740Z,100311.03
2022-09-17T13:24:48.115Z,100308.44
2022-09-17T13:26:49.724Z,100296.84
2022-09-17T13:28:52.243Z,100298.94
2022-09-17T13:30:58.831Z,100296.78
2022-09-17T13:33:03.253Z,100292.38
2022-09-17T13:35:38.178Z,100296.47
2022-09-17T13:37:43.388Z,100291.00
2022-09-17T13:39:47.599Z,100295.00
2022-09-17T13:42:02.247Z,100286.13
2022-09-17T13:44:05.462Z,100286.00
2022-09-17T13:46:21.485Z,100290.78
2022-09-17T13:48:26.065Z,100286.88
2022-09-17T13:50:30.730Z,100284.19
2022-09-17T13:52:39.883Z,100287.28
2022-09-17T13:54:42.867Z,100293.72
2022-09-17T13:56:46.780Z,100291.25
2022-09-17T13:58:48.360Z,100284.78
2022-09-17T14:00:52.762Z,100289.75
2022-09-17T14:02:54.680Z,100286.13
2022-09-17T14:05:16.527Z,100287.34
2022-09-17T14:07:45.952Z,100293.75
2022-09-17T14:09:53.739Z,100287.72
2022-09-17T14:11:55.406Z,100299.66
2022-09-17T14:14:28.907Z,100303.75
2022-09-17T14:16:44.413Z,100302.84
2022-09-17T14:18:57.363Z,100306.03
2022-09-17T14:21:06.027Z,100297.25
2022-09-17T14:23:12.225Z,100303.66
2022-09-17T14:25:19.778Z,100310.84
2022-09-17T14:27:46.486Z,100303.41
2022-09-17T14:30:03.901Z,100306.03
2022-09-17T14:32:07.265Z,100321.78
2022-09-17T14:34:18.844Z,100310.03
2022-09-17T14:36:22.711Z,100308.72
2022-09-17T14:38:31.941Z,100307.81
2022-09-17T14:40:35.455Z,100313.66
2022-09-17T14:42:38.683Z,100302.50
2022-09-17T14:44:51.130Z,100301.25
2022-09-17T14:46:58.593Z,100306.22
2022-09-17T14:49:14.538Z,100315.16
2022-09-17T14:51:25.770Z,100322.09
2022-09-17T14:53:27.303Z,100319.56
2022-09-17T14:55:31.756Z,100318.16
2022-09-17T14:57:36.009Z,100318.84
2022-09-17T14:59:48.519Z,100310.69
2022-09-17T15:01:50.250Z,100311.03
2022-09-17T15:04:21.292Z,100318.34
2022-09-17T15:06:23.548Z,100309.09
2022-09-17T15:08:27.348Z,100310.81
2022-09-17T15:10:28.958Z,100308.88
2022-09-17T15:12:30.563Z,100303.09
2022-09-17T15:14:36.514Z,100317.66
2022-09-17T15:16:38.459Z,100315.59
2022-09-17T15:18:43.213Z,100316.19
2022-09-17T15:20:47.546Z,100313.44
2022-09-17T15:22:56.139Z,100310.88
2022-09-17T15:25:01.860Z,100314.41
2022-09-17T15:27:08.936Z,100321.66
2022-09-17T15:29:12.289Z,100316.03
2022-09-17T15:31:18.147Z,100320.16
2022-09-17T15:33:19.909Z,100310.13
2022-09-17T15:35:26.699Z,100313.34
2022-09-17T15:37:28.215Z,100322.44
2022-09-17T15:39:31.097Z,100328.34
2022-09-17T15:41:34.213Z,100324.84
2022-09-17T15:43:39.214Z,100326.75
2022-09-17T15:45:41.117Z,100324.25
2022-09-17T15:48:03.788Z,100324.91
2022-09-17T15:50:14.160Z,100329.28
2022-09-17T15:52:28.926Z,100331.09
2022-09-17T15:54:32.487Z,100334.84
2022-09-17T15:56:36.184Z,100343.50
2022-09-17T15:58:53.275Z,100339.03
2022-09-17T16:01:37.219Z,100334.47
2022-09-17T16:04:16.450Z,100341.38
2022-09-17T16:06:37.573Z,100337.75
2022-09-17T16:08:39.112Z,100340.00
2022-09-17T16:10:40.665Z,100341.81
2022-09-17T16:12:42.334Z,100343.59
2022-09-17T16:14:45.773Z,100344.81
2022-09-17T16:16:47.483Z,100342.63
2022-09-17T16:18:49.370Z,100346.59
2022-09-17T16:20:52.299Z,100367.88
2022-09-17T16:22:54.119Z,100365.88
2022-09-17T16:24:55.735Z,100367.41
2022-09-17T16:26:57.287Z,100381.19
2022-09-17T16:29:03.343Z,100387.84
2022-09-17T16:31:06.607Z,100393.59
2022-09-17T16:33:10.979Z,100394.59
2022-09-17T16:35:17.090Z,100395.69
2022-09-17T16:37:20.544Z,100386.09
2022-09-17T16:39:22.256Z,100392.25
2022-09-17T16:41:23.942Z,100396.75
2022-09-17T16:43:25.704Z,100413.13
2022-09-17T16:45:29.138Z,100416.84
2022-09-17T16:47:34.403Z,100420.97
2022-09-17T16:49:36.067Z,100424.75
2022-09-17T16:51:40.023Z,100423.16
2022-09-17T16:53:42.934Z,100418.19
2022-09-17T16:55:44.570Z,100423.09
2022-09-17T16:57:51.763Z,100423.56
2022-09-17T16:59:53.721Z,100428.25
2022-09-17T17:01:55.448Z,100426.91
2022-09-17T17:03:57.042Z,100427.84
2022-09-17T17:05:58.840Z,100431.06
2022-09-17T17:08:05.902Z,100421.81
2022-09-17T17:10:10.223Z,100414.94
2022-09-17T17:12:14.946Z,100416.88
2022-09-17T17:14:16.618Z,100408.41
2022-09-17T17:16:18.271Z,100408.84
2022-09-17T17:18:20.307Z,100419.91
2022-09-17T17:20:22.076Z,100413.19
2022-09-17T17:22:24.209Z,100419.56
2022-09-17T17:24:25.997Z,100419.25
2022-09-17T17:26:29.078Z,100427.22
2022-09-17T17:28:31.763Z,100427.53
2022-09-17T17:30:35.175Z,100423.38
2022-09-17T17:32:37.217Z,100432.00
2022-09-17T17:34:38.804Z,100429.75
2022-09-17T17:36:40.447Z,100424.97
2022-09-17T17:38:42.345Z,100435.19
2022-09-17T17:40:44.360Z,100441.41
2022-09-17T17:42:51.850Z,100439.31
2022-09-17T17:44:53.417Z,100438.38
2022-09-17T17:46:55.063Z,100440.78
2022-09-17T17:49:01.520Z,100442.41
2022-09-17T17:51:03.808Z,100440.75
2022-09-17T17:53:05.412Z,100442.69
2022-09-17T17:55:09.952Z,100446.78
2022-09-17T17:57:11.830Z,100445.78
2022-09-17T17:59:17.440Z,100448.31
2022-09-17T18:01:21.486Z,100443.19
2022-09-17T18:03:23.951Z,100447.34
2022-09-17T18:05:25.805Z,100455.16
2022-09-17T18:07:29.603Z,100463.13
2022-09-17T18:09:31.308Z,100453.63
2022-09-17T18:11:33.689Z,100463.00
2022-09-17T18:13:35.907Z,100466.66
2022-09-17T18:15:38.850Z,100473.03
2022-09-17T18:17:40.405Z,100472.53
2022-09-17T18:19:42.046Z,100478.63
2022-09-17T18:21:43.622Z,100490.91
2022-09-17T18:23:46.232Z,100478.13
2022-09-17T18:25:54.690Z,100481.16
2022-09-17T18:27:56.242Z,100484.81
2022-09-17T18:29:57.893Z,100483.31
2022-09-17T18:32:02.914Z,100484.13
2022-09-17T18:34:06.344Z,100493.56
2022-09-17T18:36:07.926Z,100501.59
2022-09-17T18:38:09.500Z,100495.34
2022-09-17T18:40:11.246Z,100501.09
2022-09-17T18:42:12.951Z,100518.69
2022-09-17T18:44:14.695Z,100520.78
2022-09-17T18:46:16.660Z,100515.97
2022-09-17T18:48:19.810Z,100519.50
2022-09-17T18:50:21.439Z,100524.09
2022-09-17T18:52:23.099Z,100523.06
2022-09-17T18:54:24.936Z,100525.16
2022-09-17T18:56:29.334Z,100527.84
2022-09-17T18:58:31.068Z,100536.69
2022-09-17T19:00:32.957Z,100524.41
2022-09-17T19:02:35.217Z,100522.50
2022-09-17T19:04:38.565Z,100528.06
2022-09-17T19:06:40.313Z,100533.94
2022-09-17T19:08:42.722Z,100532.00
2022-09-17T19:10:50.443Z,100538.69
2022-09-17T19:12:52.035Z,100532.75
2022-09-17T19:14:53.560Z,100538.59
2022-09-17T19:16:55.221Z,100544.63
2022-09-17T19:18:56.821Z,100541.25
2022-09-17T19:21:00.989Z,100545.88
2022-09-17T19:23:02.940Z,100546.66
2022-09-17T19:25:05.463Z,100546.81
2022-09-17T19:27:07.035Z,100546.00
2022-09-17T19:29:08.676Z,100554.94
2022-09-17T19:31:17.141Z,100552.06
2022-09-17T19:33:18.756Z,100552.66
2022-09-17T19:35:20.676Z,100559.69
2022-09-17T19:37:23.781Z,100559.19
2022-09-17T19:39:25.371Z,100561.59
2022-09-17T19:41:27.159Z,100557.91
2022-09-17T19:43:29.644Z,100567.84
2022-09-17T19:45:31.208Z,100558.09
2022-09-17T19:47:32.945Z,100566.50
2022-09-17T19:49:34.526Z,100565.81
2022-09-17T19:51:36.599Z,100569.03
2022-09-17T19:53:39.743Z,100567.44
2022-09-17T19:55:43.209Z,100568.44
2022-09-17T19:57:44.975Z,100573.97
2022-09-17T19:59:46.777Z,100566.44
2022-09-17T20:01:49.774Z,100569.16
2022-09-17T20:03:51.567Z,100572.78
2022-09-17T20:05:59.053Z,100568.75
2022-09-17T20:08:01.024Z,100572.88
2022-09-17T20:10:04.227Z,100565.13
2022-09-17T20:12:06.217Z,100568.66
2022-09-17T20:14:09.141Z,100569.66
2022-09-17T20:16:12.867Z,100572.94
2022-09-17T20:18:16.907Z,100577.09
2022-09-17T20:20:20.283Z,100577.41
2022-09-17T20:22:21.948Z,100578.31
2022-09-17T20:24:23.701Z,100575.66
2022-09-17T20:26:27.184Z,100580.91
2022-09-17T20:28:29.357Z,100579.28
2022-09-17T20:30:31.020Z,100580.41
2022-09-17T20:32:32.578Z,100580.72
2022-09-17T20:34:34.328Z,100581.81
2022-09-17T20:36:36.114Z,100580.09
2022-09-17T20:39:10.433Z,100591.75
2022-09-17T20:41:01.205Z,100584.13
2022-09-17T20:43:04.435Z,100580.53
2022-09-17T20:45:08.954Z,100576.72
2022-09-17T20:47:10.673Z,100576.41
2022-09-17T20:49:12.378Z,100585.03
2022-09-17T20:51:15.484Z,100580.94
2022-09-17T20:53:17.189Z,100584.13
2022-09-17T20:55:18.727Z,100585.25
2022-09-17T20:57:20.512Z,100590.97
2022-09-17T20:59:23.623Z,100594.28
2022-09-17T21:01:27.437Z,100590.78
2022-09-17T21:03:29.130Z,100586.84
2022-09-17T21:05:30.797Z,100588.66
2022-09-17T21:07:32.422Z,100586.66
2022-09-17T21:09:34.168Z,100589.34
2022-09-17T21:11:36.151Z,100604.53
2022-09-17T21:13:38.196Z,100598.59
2022-09-17T21:15:41.308Z,100600.72
2022-09-17T21:17:42.867Z,100608.84
2022-09-17T21:19:46.474Z,100604.66
2022-09-17T21:21:48.076Z,100604.03
2022-09-17T21:23:49.851Z,100595.88
2022-09-17T21:25:51.831Z,100602.13
2022-09-17T21:27:55.153Z,100598.59
2022-09-17T21:29:56.716Z,100601.03
2022-09-17T21:31:59.978Z,100605.81
2022-09-17T21:34:04.405Z,100601.72
2022-09-17T21:36:08.299Z,100611.16
2022-09-17T21:38:09.954Z,100596.81
2022-09-17T21:40:11.578Z,100598.38
2022-09-17T21:42:13.261Z,100606.84
2022-09-17T21:44:15.123Z,100598.81
2022-09-17T21:46:18.737Z,100601.72
2022-09-17T21:48:21.950Z,100609.88
2022-09-17T21:50:23.656Z,100608.25
2022-09-17T21:52:25.226Z,100609.88
2022-09-17T21:54:26.822Z,100607.03
2022-09-17T21:56:29.356Z,100610.84
2022-09-17T21:58:30.887Z,100614.38
2022-09-17T22:00:32.554Z,100613.88
2022-09-17T22:02:34.241Z,100609.97
2022-09-17T22:04:37.367Z,100611.25
2022-09-17T22:06:39.401Z,100607.25
2022-09-17T22:08:41.560Z,100610.16
2022-09-17T22:10:43.199Z,100610.16
2022-09-17T22:12:44.907Z,100614.19
2022-09-17T22:14:46.653Z,100607.66
2022-09-17T22:16:50.122Z,100609.75
2022-09-17T22:18:51.954Z,100612.44
2022-09-17T22:20:55.125Z,100610.38
2022-09-17T22:22:56.695Z,100616.06
2022-09-17T22:24:58.307Z,100617.81
2022-09-17T22:26:59.873Z,100618.78
2022-09-17T22:29:02.473Z,100621.50
2022-09-17T22:31:06.618Z,100616.91
2022-09-17T22:33:08.635Z,100616.28
2022-09-17T22:35:10.206Z,100612.88
2022-09-17T22:37:13.194Z,100611.56
2022-09-17T22:39:15.396Z,100616.50
2022-09-17T22:41:18.714Z,100619.19
2022-09-17T22:43:20.549Z,100611.69
2022-09-17T22:45:22.149Z,100617.19
2022-09-17T22:47:23.643Z,100619.50
2022-09-17T22:49:25.293Z,100611.19
2022-09-17T22:51:28.312Z,100616.47
2022-09-17T22:53:31.398Z,100609.84
2022-09-17T22:55:32.913Z,100619.28
2022-09-17T22:57:34.443Z,100614.47
2022-09-17T22:59:36.183Z,100612.47
2022-09-17T23:01:39.155Z,100618.50
2022-09-17T23:03:41.414Z,100615.34
2022-09-17T23:05:42.953Z,100615.88
2022-09-17T23:07:44.564Z,100612.13
2022-09-17T23:09:47.545Z,100610.06
2022-09-17T23:11:49.242Z,100605.13
2022-09-17T23:13:51.590Z,100613.16
2022-09-17T23:15:53.224Z,100614.06
2022-09-17T23:17:54.834Z,100617.69
2022-09-17T23:19:56.582Z,100617.88
2022-09-17T23:21:58.408Z,100608.44
2022-09-17T23:24:00.203Z,100615.38
2022-09-17T23:26:05.015Z,100618.88
2022-09-17T23:28:06.560Z,100615.88
2022-09-17T23:30:09.510Z,100616.56
2022-09-17T23:32:11.066Z,100619.97
2022-09-17T23:34:12.633Z,100608.34
2022-09-17T23:36:16.154Z,100608.84
2022-09-17T23:38:19.782Z,100598.41
2022-09-17T23:40:21.405Z,100606.13
2022-09-17T23:42:24.273Z,100601.41
2022-09-17T23:44:26.029Z,100602.09
2022-09-17T23:46:30.116Z,100598.41
2022-09-17T23:48:31.690Z,100600.50
2022-09-17T23:50:33.265Z,100601.72
2022-09-17T23:52:34.874Z,100609.06
2022-09-17T23:54:36.413Z,100602.09
2022-09-17T23:56:38.016Z,100602.91